WetterOnline ( https://www.wetteronline.de )

Wetter aktuell Leipzig

Aktuelles Wetter: Leipzig-Holzhausen (138m)

6-stündlich | Neueste Meldungen
Ortszeit Temperatur Wetter
Sa, 28.11. 13:00 3.8° C bewölkt
Sa, 28.11. 7:00 3.1° C bedeckt
Sa, 28.11. 1:00 2.8° C Nebel
Fr, 27.11. 19:00 0.1° C wolkenlos
Fr, 27.11. 13:00 5.8° C wolkenlos
Fr, 27.11. 7:00 1.8° C bedeckt
Fr, 27.11. 1:00 3.0° C wolkig
Do, 26.11. 19:00 5.8° C bedeckt
Ortszeit Temperatur Wetter
Sa, 28.11. 15:30 3.2° C wolkig
Sa, 28.11. 15:20 3.2° C wolkig
Sa, 28.11. 15:10 3.3° C wolkig
Sa, 28.11. 15:00 3.5° C wolkig
Sa, 28.11. 14:50 3.5° C wolkig
Sa, 28.11. 14:40 3.4° C wolkig
Sa, 28.11. 14:30 3.5° C wolkig
Sa, 28.11. 14:00 3.7° C wolkig
Sa, 28.11. 13:30 3.7° C bewölkt
Sa, 28.11. 13:00 3.8° C bewölkt
Sa, 28.11. 12:30 3.5° C wolkig
Ortszeit Relative Feuchte Sichtweite
Sa, 28.11. 13:00 75% 30 km
Sa, 28.11. 7:00 97% 3.7 km
Sa, 28.11. 1:00 98% 0.8 km
Fr, 27.11. 19:00 93% 6 km
Fr, 27.11. 13:00 72% 30 km
Fr, 27.11. 7:00 88% 21 km
Fr, 27.11. 1:00 85% 22 km
Do, 26.11. 19:00 83% 30 km
Ortszeit Relative Feuchte Sichtweite
Sa, 28.11. 15:30 73% 35 km
Sa, 28.11. 15:20 73% -
Sa, 28.11. 15:10 74% -
Sa, 28.11. 15:00 74% 30 km
Sa, 28.11. 14:50 74% -
Sa, 28.11. 14:40 75% -
Sa, 28.11. 14:30 73% 35 km
Sa, 28.11. 14:00 73% 35 km
Sa, 28.11. 13:30 73% 30 km
Sa, 28.11. 13:00 75% 30 km
Sa, 28.11. 12:30 74% 40 km
Ortszeit Niederschlagsmenge Niederschlagsart
Sa, 28.11. 13:00 0.0 l/m2 in 6 Std. -
Sa, 28.11. 7:00 0.0 l/m2 in 12 Std. -
Sa, 28.11. 1:00 0.0 l/m2 in 6 Std. -
Fr, 27.11. 19:00 0.1 l/m2 in 12 Std. -
Fr, 27.11. 13:00 0.1 l/m2 in 6 Std. Regen
Fr, 27.11. 7:00 0.1 l/m2 in 12 Std. Regen
Fr, 27.11. 1:00 0.0 l/m2 in 6 Std. -
Do, 26.11. 19:00 0.0 l/m2 in 12 Std. -
Ortszeit Niederschlagsmenge Niederschlagsart
Sa, 28.11. 15:30 0.0 l/m2 in 1 Std. -
Sa, 28.11. 15:20 keine Meldung -
Sa, 28.11. 15:10 keine Meldung -
Sa, 28.11. 15:00 0.0 l/m2 in 1 Std. -
Sa, 28.11. 14:50 keine Meldung -
Sa, 28.11. 14:40 keine Meldung -
Sa, 28.11. 14:30 0.0 l/m2 in 1 Std. -
Sa, 28.11. 14:00 0.0 l/m2 in 1 Std. -
Sa, 28.11. 13:30 0.0 l/m2 in 1 Std. -
Sa, 28.11. 13:00 0.0 l/m2 in 1 Std. -
Sa, 28.11. 12:30 0.0 l/m2 in 1 Std. -
Ortszeit Stärke Spitze Richtung
km/h Bft. km/h Grad Sektor
Sa, 28.11. 13:00 4 1 22 80° O
Sa, 28.11. 7:00 7 2 14 50° NO
Sa, 28.11. 1:00 4 1 11 100° O
Fr, 27.11. 19:00 0 0 14 - -
Fr, 27.11. 13:00 6 1 11 150° SO
Fr, 27.11. 7:00 7 2 14 200° S
Fr, 27.11. 1:00 7 2 14 190° S
Do, 26.11. 19:00 7 2 18 200° S
Ortszeit Stärke Spitze Richtung
km/h Bft. km/h Grad Sektor
Sa, 28.11. 15:30 11 2 18 50° NO
Sa, 28.11. 15:20 11 2 - 50° NO
Sa, 28.11. 15:10 7 2 - 50° NO
Sa, 28.11. 15:00 4 1 14 50° NO
Sa, 28.11. 14:50 4 1 - 50° NO
Sa, 28.11. 14:40 7 2 - 40° NO
Sa, 28.11. 14:30 6 1 15 100° O
Sa, 28.11. 14:00 4 1 14 100° O
Sa, 28.11. 13:30 7 2 17 70° O
Sa, 28.11. 13:00 4 1 22 80° O
Sa, 28.11. 12:30 9 2 22 50° NO
Ortszeit Untergrenze Bedeckung Gattung
total tief tief mittel hoch
Sa, 28.11. 13:00 510 m 7/8 7/8 - - -
Sa, 28.11. 7:00 60 m 8/8 8/8 - - -
Sa, 28.11. 1:00 30 m 8/8 8/8 - - -
Fr, 27.11. 19:00 - 0/8 0/8 - - -
Fr, 27.11. 13:00 - 0/8 0/8 - - -
Fr, 27.11. 7:00 2400 m 8/8 8/8 - - -
Fr, 27.11. 1:00 1200 m 5/8 5/8 - - -
Do, 26.11. 19:00 1050 m 8/8 8/8 - - -
Ortszeit Bedeckungsgrad in Achtel und Wolkenuntergrenze
Sa, 28.11. 15:30 6(540m)
Sa, 28.11. 15:20 6(540m)
Sa, 28.11. 15:10 6(540m)
Sa, 28.11. 15:00 6(540m)
Sa, 28.11. 14:50 6(540m)
Sa, 28.11. 14:40 6(510m)
Sa, 28.11. 14:30 5(510m)
Sa, 28.11. 14:00 5(510m)
Sa, 28.11. 13:30 7(510m)
Sa, 28.11. 13:00 7(510m)
Sa, 28.11. 12:30 6(510m)
Ortszeit Luftdruck NN (hPa) Tendenz (hPa in 3 Std.)
Sa, 28.11. 13:00 1025 - 0,1
Sa, 28.11. 7:00 1023 + 0,5
Sa, 28.11. 1:00 1023 + 0,1
Fr, 27.11. 19:00 1023 + 0,7
Fr, 27.11. 13:00 1022 - 0,7
Fr, 27.11. 7:00 1022 + 0,1
Fr, 27.11. 1:00 1022 - 0,1
Do, 26.11. 19:00 1022 + 0,2
Ortszeit Luftdruck NN (hPa) Tendenz (hPa in 3 Std.)
Sa, 28.11. 15:30 1025 0,0
Sa, 28.11. 15:20 1025 keine Meldung
Sa, 28.11. 15:10 1025 keine Meldung
Sa, 28.11. 15:00 1025 - 0,2
Sa, 28.11. 14:50 1025 keine Meldung
Sa, 28.11. 14:40 1024 keine Meldung
Sa, 28.11. 14:30 1024 - 0,6
Sa, 28.11. 14:00 1024 - 0,5
Sa, 28.11. 13:30 1024 - 0,5
Sa, 28.11. 13:00 1025 - 0,1
Sa, 28.11. 12:30 1025 + 0,4
Ortszeit Schneehöhe (cm)
Sa, 28.11. 13:00 0
Sa, 28.11. 7:00 0
Sa, 28.11. 1:00 0
Fr, 27.11. 19:00 0
Fr, 27.11. 13:00 0
Fr, 27.11. 7:00 0
Fr, 27.11. 1:00 0
Do, 26.11. 19:00 0
Ortszeit Schneehöhe (cm)
Sa, 28.11. 15:30 0
Sa, 28.11. 15:20 0
Sa, 28.11. 15:10 0
Sa, 28.11. 15:00 0
Sa, 28.11. 14:50 0
Sa, 28.11. 14:40 0
Sa, 28.11. 14:30 0
Sa, 28.11. 14:00 0
Sa, 28.11. 13:30 0
Sa, 28.11. 13:00 0
Sa, 28.11. 12:30 0
Link zu dieser Seite / Seite empfehlen

Das Wetter in ...